This is the latest recevied weather packets stored in our database for station/object N5TDX. If no packets are shown the sender has not sent any weather packets the latest 10 day(s).
| Time | Temp. | Humidity | Pressure | Rain* | Wind** | Luminosity | Snow |
|---|---|---|---|---|---|---|---|
| 1777315659 | 33.89° C | 38% | 1005.3 hPa | 0 mm | - | - | - |
| 1777315357 | 33.89° C | 40% | 1005.5 hPa | 0 mm | - | - | - |
| 1777315055 | 33.33° C | 45% | 1005.6 hPa | 0 mm | - | - | - |
| 1777314754 | 33.89° C | 42% | 1005.9 hPa | 0 mm | - | - | - |
| 1777314452 | 33.33° C | 45% | 1005.3 hPa | 0 mm | - | - | - |
| 1777314148 | 33.33° C | 47% | 1005.6 hPa | 0 mm | - | - | - |
| 1777313847 | 32.78° C | 48% | 1005.5 hPa | 0 mm | - | - | - |
| 1777313543 | 33.33° C | 44% | 1005.6 hPa | 0 mm | - | - | - |
| 1777313241 | 32.78° C | 42% | 1005.6 hPa | 0 mm | - | - | - |
| 1777312937 | 32.78° C | 45% | 1005.7 hPa | 0 mm | - | - | - |
| 1777312633 | 32.78° C | 51% | 1005.5 hPa | 0 mm | - | - | - |
| 1777312331 | 32.78° C | 49% | 1005.9 hPa | 0 mm | - | - | - |
| 1777312028 | 32.22° C | 51% | 1005.6 hPa | 0 mm | - | - | - |
| 1777311724 | 32.22° C | 52% | 1005.3 hPa | 0 mm | - | - | - |
| 1777311423 | 32.22° C | 53% | 1005.6 hPa | 0 mm | - | - | - |
| 1777311119 | 32.22° C | 51% | 1005.5 hPa | 0 mm | - | - | - |
| 1777310818 | 31.67° C | 53% | 1005.7 hPa | 0 mm | - | - | - |
| 1777310515 | 31.67° C | 54% | 1005.5 hPa | 0 mm | - | - | - |
| 1777310211 | 32.22° C | 53% | 1005.6 hPa | 0 mm | - | - | - |
| 1777309909 | 31.67° C | 59% | 1005.6 hPa | 0 mm | - | - | - |
| 1777309607 | 31.11° C | 60% | 1005.5 hPa | 0 mm | - | - | - |
| 1777309304 | 31.67° C | 58% | 1005.7 hPa | 0 mm | - | - | - |
| 1777309002 | 31.11° C | 61% | 1005.9 hPa | 0 mm | - | - | - |
| 1777308703 | 30.56° C | 61% | 1005.8 hPa | 0 mm | - | - | - |
| 1777308398 | 30.56° C | 62% | 1005.5 hPa | 0 mm | - | - | - |
* Rain latest hour (hover to see other rain measurements)
** Current wind speed in m/s (hover to see current wind gust speed)